Time;durP1;ratioP1;P1;durP2;ratioP2;P2;SDS_P1;SDS_P2;PMS_P1;PMS_P2;Temp;Humidity;BMP_temperature;BMP_pressure;BME280_temperature;BME280_humidity;BME280_pressure;Samples;Min_cycle;Max_cycle;Signal;HPM_P1;HPM_P2
2024/04/19 20:13:46;;;;;;;3.28;2.50;;;;;;;;;;6187314;21;19939;-85
2024/04/19 20:16:15;;;;;;;2.75;2.55;;;;;;;;;;5149525;27;20087;-83
2024/04/19 20:18:41;;;;;;;2.80;2.60;;;;;;;;;;5162263;27;20013;-83
2024/04/19 20:21:07;;;;;;;5.30;4.05;;;;;;;;;;5134316;27;20264;-83
2024/04/19 20:23:32;;;;;;;3.25;2.92;;;;;;;;;;5118902;27;20330;-84
2024/04/19 20:26:01;;;;;;;2.67;2.47;;;;;;;;;;5147417;27;20339;-85
2024/04/19 20:28:26;;;;;;;3.60;2.40;;;;;;;;;;5179624;27;20004;-82
2024/04/19 20:30:53;;;;;;;4.07;2.45;;;;;;;;;;5176941;27;20021;-84
2024/04/19 20:33:19;;;;;;;3.25;2.22;;;;;;;;;;5165744;27;20009;-84
2024/04/19 20:35:46;;;;;;;5.10;2.40;;;;;;;;;;5152533;27;20015;-84
2024/04/19 20:38:12;;;;;;;3.90;3.50;;;;;;;;;;5149193;27;20001;-84
2024/04/19 20:40:38;;;;;;;2.92;2.72;;;;;;;;;;5185745;27;20435;-83
2024/04/19 20:43:04;;;;;;;2.22;2.03;;;;;;;;;;5189890;27;20012;-84
2024/04/19 20:45:30;;;;;;;2.53;2.30;;;;;;;;;;5183340;27;20000;-85
2024/04/19 20:48:00;;;;;;;4.32;3.17;;;;;;;;;;5183393;27;20011;-85
2024/04/19 20:50:26;;;;;;;9.23;6.90;;;;;;;;;;5149881;27;20008;-84
2024/04/19 20:52:53;;;;;;;4.72;3.25;;;;;;;;;;5184436;27;20000;-84
2024/04/19 20:55:22;;;;;;;2.72;2.53;;;;;;;;;;5193558;22;20028;-85
2024/04/19 20:58:02;;;;;;;2.67;2.42;;;;;;;;;;5191567;27;20011;-89
2024/04/19 21:00:28;;;;;;;2.97;2.67;;;;;;;;;;5222057;27;20000;-85
2024/04/19 21:02:55;;;;;;;3.38;2.40;;;;;;;;;;5216571;27;20011;-85
2024/04/19 21:05:20;;;;;;;2.40;2.20;;;;;;;;;;5194014;27;20023;-85
2024/04/19 21:07:45;;;;;;;3.55;2.60;;;;;;;;;;5182949;27;20000;-85
2024/04/19 21:10:15;;;;;;;2.40;2.20;;;;;;;;;;5182246;27;20001;-84
2024/04/19 21:12:41;;;;;;;3.22;2.42;;;;;;;;;;5182592;27;20005;-84
2024/04/19 21:15:09;;;;;;;2.67;2.35;;;;;;;;;;5181807;27;20015;-89
2024/04/19 21:17:35;;;;;;;2.70;2.50;;;;;;;;;;5182232;27;20011;-93
2024/04/19 21:20:00;;;;;;;2.55;2.35;;;;;;;;;;5182555;27;20001;-89
2024/04/19 21:22:26;;;;;;;4.28;2.70;;;;;;;;;;5182932;27;20019;-88
2024/04/19 21:24:51;;;;;;;2.70;2.47;;;;;;;;;;5183114;27;20015;-92
2024/04/19 21:27:18;;;;;;;2.58;2.38;;;;;;;;;;5183616;27;20004;-89
2024/04/19 21:29:44;;;;;;;3.00;2.00;;;;;;;;;;5154732;27;20108;-95
2024/04/19 21:32:09;;;;;;;4.22;2.60;;;;;;;;;;5154960;27;20036;-94
2024/04/19 21:34:35;;;;;;;3.25;2.95;;;;;;;;;;5183403;27;20016;-90
2024/04/19 21:37:00;;;;;;;3.10;2.70;;;;;;;;;;5183088;27;20012;-92
2024/04/19 21:39:26;;;;;;;3.28;2.63;;;;;;;;;;5182789;27;20005;-95
2024/04/19 21:41:51;;;;;;;3.50;2.40;;;;;;;;;;5182298;27;20023;-96
2024/04/19 21:44:16;;;;;;;2.38;1.95;;;;;;;;;;5182747;27;20004;-96
2024/04/19 21:46:42;;;;;;;2.97;2.78;;;;;;;;;;5181821;27;20340;-94
2024/04/19 21:49:07;;;;;;;2.80;2.60;;;;;;;;;;5183035;27;20015;-96
2024/04/19 21:51:33;;;;;;;2.25;2.05;;;;;;;;;;5182740;27;20012;-96
2024/04/19 21:53:58;;;;;;;3.53;2.50;;;;;;;;;;5182503;27;20001;-96
2024/04/19 21:56:25;;;;;;;3.20;2.30;;;;;;;;;;5182602;27;20427;-91
2024/04/19 21:58:53;;;;;;;2.67;2.38;;;;;;;;;;5182663;27;20000;-96
2024/04/19 22:01:19;;;;;;;2.95;2.38;;;;;;;;;;5182298;27;20012;-95
2024/04/19 22:03:44;;;;;;;3.75;2.58;;;;;;;;;;5182309;27;20000;-96
2024/04/19 22:06:11;;;;;;;2.55;2.22;;;;;;;;;;5182547;27;20000;-96
2024/04/19 22:08:36;;;;;;;2.45;2.25;;;;;;;;;;5182203;27;20004;-96
2024/04/19 22:11:04;;;;;;;2.83;2.20;;;;;;;;;;5182247;27;20029;-96
2024/04/19 22:13:42;;;;;;;3.85;3.22;;;;;;;;;;5182491;27;20440;-85
2024/04/19 22:16:09;;;;;;;3.63;2.38;;;;;;;;;;5182179;27;20016;-96
2024/04/19 22:18:36;;;;;;;2.40;2.20;;;;;;;;;;5181864;27;20000;-96
2024/04/19 22:21:07;;;;;;;2.55;2.25;;;;;;;;;;5181831;27;20000;-96
2024/04/19 22:23:36;;;;;;;4.22;2.60;;;;;;;;;;5181916;27;20005;-95
2024/04/19 22:26:05;;;;;;;2.92;2.63;;;;;;;;;;5187830;27;20088;-87
2024/04/19 22:28:32;;;;;;;3.25;2.38;;;;;;;;;;5186179;27;20057;-93
